createdAt,value
2022-08-22T00:00:13.507Z,96913.63
2022-08-22T00:02:41.880Z,97130.16
2022-08-22T00:03:08.326Z,97039.16
2022-08-22T00:03:11.649Z,96926.09
2022-08-22T00:03:11.734Z,96980.75
2022-08-22T00:03:17.566Z,96921.16
2022-08-22T00:05:59.582Z,96917.84
2022-08-22T00:08:55.043Z,96922.22
2022-08-22T00:11:34.982Z,96925.19
2022-08-22T00:14:39.921Z,96918.38
2022-08-22T00:17:23.652Z,96913.53
2022-08-22T00:19:57.382Z,96919.03
2022-08-22T00:23:10.168Z,96903.19
2022-08-22T00:25:43.875Z,96907.66
2022-08-22T00:28:22.798Z,96904.56
2022-08-22T00:30:59.981Z,96906.88
2022-08-22T00:33:46.465Z,96914.22
2022-08-22T00:36:47.944Z,96923.22
2022-08-22T00:39:32.737Z,96913.03
2022-08-22T00:42:04.469Z,96917.91
2022-08-22T00:44:41.728Z,96917.69
2022-08-22T00:47:19.919Z,96916.56
2022-08-22T00:50:04.739Z,96914.75
2022-08-22T00:52:42.146Z,96913.25
2022-08-22T00:55:35.065Z,96902.59
2022-08-22T00:58:27.765Z,96914.22
2022-08-22T01:01:01.148Z,96892.19
2022-08-22T01:03:47.223Z,96898.34
2022-08-22T01:06:27.131Z,96903.84
2022-08-22T01:09:24.436Z,96891.31
2022-08-22T01:12:25.882Z,96883.53
2022-08-22T01:15:00.779Z,96880.38
2022-08-22T01:17:45.695Z,96881.56
2022-08-22T01:20:19.788Z,96883.94
2022-08-22T01:23:13.666Z,96885.16
2022-08-22T01:25:59.649Z,96877.16
2022-08-22T01:28:47.384Z,96869.31
2022-08-22T01:31:42.826Z,96869.88
2022-08-22T01:34:23.288Z,96860.34
2022-08-22T01:37:27.692Z,96860.34
2022-08-22T01:40:14.037Z,96858.22
2022-08-22T01:42:53.962Z,96854.75
2022-08-22T01:45:43.033Z,96862.38
2022-08-22T01:48:16.690Z,96863.66
2022-08-22T01:50:58.734Z,96870.31
2022-08-22T01:53:41.022Z,96872.19
2022-08-22T01:56:16.669Z,96878.06
2022-08-22T01:59:03.731Z,96876.09
2022-08-22T02:01:40.649Z,96882.31
2022-08-22T02:04:29.146Z,96872.31
2022-08-22T02:07:29.163Z,96880.19
2022-08-22T02:10:06.673Z,96871.44
2022-08-22T02:12:53.718Z,96867.78
2022-08-22T02:15:22.790Z,96880.09
2022-08-22T02:18:06.115Z,96887.50
2022-08-22T02:20:49.458Z,96875.00
2022-08-22T02:23:47.175Z,96880.09
2022-08-22T02:26:20.746Z,96878.81
2022-08-22T02:29:12.754Z,96876.81
2022-08-22T02:32:01.750Z,96880.22
2022-08-22T02:34:54.123Z,96885.25
2022-08-22T02:37:55.380Z,96884.22
2022-08-22T02:40:35.029Z,96878.72
2022-08-22T02:43:27.863Z,96889.13
2022-08-22T02:46:01.449Z,96896.56
2022-08-22T02:48:37.615Z,96887.66
2022-08-22T02:51:28.764Z,96896.69
2022-08-22T02:53:59.380Z,96890.31
2022-08-22T02:56:30.195Z,96891.25
2022-08-22T02:59:28.190Z,96902.38
2022-08-22T03:01:57.088Z,96899.16
2022-08-22T03:04:25.109Z,96910.69
2022-08-22T03:07:17.191Z,96914.88
2022-08-22T03:10:06.069Z,96914.84
2022-08-22T03:12:43.018Z,96915.59
2022-08-22T03:15:35.950Z,96923.22
2022-08-22T03:18:25.437Z,96929.47
2022-08-22T03:20:56.487Z,96934.78
2022-08-22T03:23:37.427Z,96939.81
2022-08-22T03:26:29.586Z,96937.41
2022-08-22T03:29:10.893Z,96945.72
2022-08-22T03:31:39.383Z,96952.69
2022-08-22T03:34:25.592Z,96956.41
2022-08-22T03:37:18.297Z,96976.88
2022-08-22T03:39:55.142Z,96975.63
2022-08-22T03:42:44.790Z,96972.28
2022-08-22T03:45:44.035Z,96980.13
2022-08-22T03:48:25.491Z,96973.94
2022-08-22T03:51:01.111Z,96985.72
2022-08-22T03:53:35.090Z,96983.75
2022-08-22T03:56:14.675Z,96982.78
2022-08-22T03:59:10.147Z,96986.63
2022-08-22T04:01:59.062Z,96992.59
2022-08-22T04:04:50.123Z,96988.16
2022-08-22T04:07:39.161Z,96986.97
2022-08-22T04:10:39.894Z,96985.31
2022-08-22T04:13:24.767Z,96990.50
2022-08-22T04:16:04.845Z,96985.56
2022-08-22T04:18:41.790Z,96999.16
2022-08-22T04:21:28.090Z,97004.69
2022-08-22T04:24:34.219Z,97003.47
2022-08-22T04:27:45.371Z,97001.72
2022-08-22T04:30:26.883Z,97008.00
2022-08-22T04:33:08.052Z,97009.00
2022-08-22T04:35:52.790Z,97015.44
2022-08-22T04:38:40.159Z,97015.47
2022-08-22T04:41:15.075Z,97012.75
2022-08-22T04:43:48.105Z,97011.50
2022-08-22T04:46:32.103Z,97017.72
2022-08-22T04:49:26.863Z,97016.72
2022-08-22T04:52:29.436Z,97016.75
2022-08-22T04:55:09.687Z,97028.69
2022-08-22T04:58:18.595Z,97022.97
2022-08-22T05:01:09.904Z,97030.19
2022-08-22T05:03:44.979Z,97024.47
2022-08-22T05:06:14.354Z,97027.69
2022-08-22T05:08:45.805Z,97027.94
2022-08-22T05:11:19.476Z,97025.47
2022-08-22T05:14:07.132Z,97027.22
2022-08-22T05:16:48.986Z,97031.66
2022-08-22T05:19:28.391Z,97028.94
2022-08-22T05:21:59.468Z,97036.66
2022-08-22T05:24:43.055Z,97037.63
2022-08-22T05:27:26.282Z,97036.88
2022-08-22T05:30:06.287Z,97041.84
2022-08-22T05:33:00.666Z,97050.53
2022-08-22T05:35:36.536Z,97053.44
2022-08-22T05:38:08.032Z,97058.59
2022-08-22T05:40:37.734Z,97053.63
2022-08-22T05:43:07.216Z,97051.41
2022-08-22T05:45:35.805Z,97051.91
2022-08-22T05:48:07.563Z,97067.78
2022-08-22T05:50:38.288Z,97059.09
2022-08-22T05:53:32.336Z,97064.31
2022-08-22T05:56:37.216Z,97067.53
2022-08-22T05:59:08.196Z,97075.25
2022-08-22T06:01:43.680Z,97075.47
2022-08-22T06:04:54.021Z,97072.22
2022-08-22T06:07:28.878Z,97077.41
2022-08-22T06:10:08.781Z,97079.91
2022-08-22T06:12:43.118Z,97080.16
2022-08-22T06:15:21.029Z,97094.81
2022-08-22T06:17:52.390Z,97092.28
2022-08-22T06:20:28.714Z,97098.69
2022-08-22T06:23:00.520Z,97098.78
2022-08-22T06:25:36.339Z,97092.50
2022-08-22T06:28:13.731Z,97087.28
2022-08-22T06:30:41.988Z,97089.78
2022-08-22T06:33:14.739Z,97083.03
2022-08-22T06:35:50.304Z,97089.75
2022-08-22T06:38:20.201Z,97090.06
2022-08-22T06:40:49.983Z,97104.84
2022-08-22T06:43:18.623Z,97103.22
2022-08-22T06:45:50.278Z,97100.19
2022-08-22T06:48:20.671Z,97088.53
2022-08-22T06:50:53.030Z,97081.34
2022-08-22T06:53:48.176Z,97093.97
2022-08-22T06:56:27.606Z,97094.25
2022-08-22T06:59:00.768Z,97089.09
2022-08-22T07:01:34.302Z,97089.41
2022-08-22T07:04:08.507Z,97101.16
2022-08-22T07:06:38.290Z,97096.41
2022-08-22T07:09:16.197Z,97097.41
2022-08-22T07:11:47.198Z,97097.44
2022-08-22T07:14:28.969Z,97109.34
2022-08-22T07:17:07.722Z,97103.19
2022-08-22T07:19:38.992Z,97105.63
2022-08-22T07:22:26.715Z,97098.41
2022-08-22T07:25:20.862Z,97094.47
2022-08-22T07:28:06.937Z,97091.03
2022-08-22T07:30:52.377Z,97096.91
2022-08-22T07:33:39.161Z,97101.84
2022-08-22T07:36:23.268Z,97110.25
2022-08-22T07:39:11.207Z,97111.53
2022-08-22T07:42:02.254Z,97109.81
2022-08-22T07:45:02.030Z,97103.59
2022-08-22T07:48:10.916Z,97108.13
2022-08-22T07:50:47.534Z,97101.94
2022-08-22T07:53:35.750Z,97112.56
2022-08-22T07:56:08.998Z,97118.22
2022-08-22T07:58:39.451Z,97127.81
2022-08-22T08:01:15.243Z,97125.34
2022-08-22T08:03:47.175Z,97131.28
2022-08-22T08:06:15.311Z,97129.03
2022-08-22T08:08:45.479Z,97134.03
2022-08-22T08:11:18.474Z,97135.94
2022-08-22T08:13:48.954Z,97129.38
2022-08-22T08:16:28.254Z,97131.59
2022-08-22T08:18:58.404Z,97126.88
2022-08-22T08:21:34.127Z,97131.00
2022-08-22T08:24:03.982Z,97125.19
2022-08-22T08:26:48.144Z,97130.03
2022-08-22T08:29:18.307Z,97137.34
2022-08-22T08:31:50.583Z,97139.47
2022-08-22T08:34:25.413Z,97131.31
2022-08-22T08:37:12.878Z,97127.59
2022-08-22T08:39:46.088Z,97132.72
2022-08-22T08:42:25.932Z,97133.94
2022-08-22T08:45:18.669Z,97140.78
2022-08-22T08:48:10.803Z,97142.78
2022-08-22T08:50:45.278Z,97141.63
2022-08-22T08:53:51.273Z,97136.84
2022-08-22T08:56:54.250Z,97139.91
2022-08-22T08:59:43.155Z,97138.69
2022-08-22T09:02:35.779Z,97147.69
2022-08-22T09:05:37.338Z,97151.34
2022-08-22T09:08:14.331Z,97149.28
2022-08-22T09:14:27.185Z,97153.19
2022-08-22T09:17:19.437Z,97153.47
2022-08-22T09:20:26.267Z,97161.31
2022-08-22T09:23:35.898Z,97160.13
2022-08-22T09:26:20.431Z,97161.06
2022-08-22T09:28:59.074Z,97174.44
2022-08-22T09:31:44.807Z,97164.75
2022-08-22T09:34:23.962Z,97165.22
2022-08-22T09:37:05.425Z,97169.50
2022-08-22T09:39:51.483Z,97176.28
2022-08-22T09:40:16.098Z,97153.38
2022-08-22T09:42:30.250Z,97176.84
2022-08-22T09:45:19.748Z,97174.03
2022-08-22T09:48:06.354Z,97175.16
2022-08-22T09:51:20.010Z,97170.94
2022-08-22T09:54:16.170Z,97175.06
2022-08-22T09:56:46.910Z,97186.63
2022-08-22T09:59:26.568Z,97181.75
2022-08-22T10:01:55.085Z,97180.72
2022-08-22T10:04:40.327Z,97180.81
2022-08-22T10:07:13.369Z,97185.78
2022-08-22T10:10:04.444Z,97184.06
2022-08-22T10:13:14.255Z,97182.94
2022-08-22T10:16:17.291Z,97184.28
2022-08-22T10:19:09.069Z,97179.03
2022-08-22T10:21:42.527Z,97183.28
2022-08-22T10:24:54.741Z,97185.06
2022-08-22T10:27:54.867Z,97181.50
2022-08-22T10:30:43.998Z,97187.88
2022-08-22T10:33:34.715Z,97191.81
2022-08-22T10:36:12.280Z,97193.31
2022-08-22T10:38:59.162Z,97199.13
2022-08-22T10:41:58.070Z,97196.69
2022-08-22T10:44:40.271Z,97191.31
2022-08-22T10:47:22.762Z,97194.03
2022-08-22T10:49:53.428Z,97206.19
2022-08-22T10:52:56.498Z,97195.03
2022-08-22T10:55:31.492Z,97193.06
2022-08-22T10:58:10.477Z,97203.78
2022-08-22T11:00:55.084Z,97198.81
2022-08-22T11:03:41.259Z,97203.06
2022-08-22T11:06:30.740Z,97197.63
2022-08-22T11:09:09.613Z,97198.53
2022-08-22T11:11:57.048Z,97197.34
2022-08-22T11:14:48.681Z,97194.94
2022-08-22T11:17:32.443Z,97202.47
2022-08-22T11:20:32.315Z,97197.38
2022-08-22T11:23:21.572Z,97198.31
2022-08-22T11:26:07.798Z,97200.44
2022-08-22T11:29:14.148Z,97196.53
2022-08-22T11:31:51.569Z,97195.63
2022-08-22T11:34:34.942Z,97190.94
2022-08-22T11:37:43.020Z,97200.31
2022-08-22T11:40:37.735Z,97194.56
2022-08-22T11:43:32.510Z,97206.78
2022-08-22T11:46:20.012Z,97201.09
2022-08-22T11:49:06.436Z,97205.16
2022-08-22T11:51:58.012Z,97205.00
2022-08-22T11:54:54.633Z,97202.44
2022-08-22T11:57:31.364Z,97201.22
2022-08-22T12:00:08.875Z,97202.28
2022-08-22T12:02:48.981Z,97205.91
2022-08-22T12:05:26.241Z,97208.31
2022-08-22T12:08:31.561Z,97202.00
2022-08-22T12:11:00.189Z,97204.88
2022-08-22T12:13:40.520Z,97205.28
2022-08-22T12:16:24.049Z,97206.50
2022-08-22T12:18:55.774Z,97203.63
2022-08-22T12:21:23.765Z,97206.34
2022-08-22T12:24:21.246Z,97215.53
2022-08-22T12:27:08.747Z,97207.84
2022-08-22T12:29:45.889Z,97216.72
2022-08-22T12:32:45.733Z,97217.94
2022-08-22T12:35:17.006Z,97220.19
2022-08-22T12:38:11.858Z,97225.78
2022-08-22T12:41:00.583Z,97234.75
2022-08-22T12:43:49.667Z,97232.47
2022-08-22T12:46:37.840Z,97234.50
2022-08-22T12:49:37.143Z,97233.56
2022-08-22T12:52:24.169Z,97235.84
2022-08-22T12:54:54.965Z,97237.78
2022-08-22T12:57:40.423Z,97239.09
2022-08-22T13:00:17.765Z,97239.03
2022-08-22T13:02:56.238Z,97239.78
2022-08-22T13:05:27.038Z,97233.50
2022-08-22T13:08:02.408Z,97234.69
2022-08-22T13:10:57.470Z,97249.63
2022-08-22T13:13:40.967Z,97251.16
2022-08-22T13:16:14.470Z,97258.69
2022-08-22T13:18:53.479Z,97251.44
2022-08-22T13:21:32.132Z,97257.63
2022-08-22T13:24:12.686Z,97259.16
2022-08-22T13:27:05.643Z,97265.66
2022-08-22T13:29:45.903Z,97269.56
2022-08-22T13:32:33.619Z,97263.69
2022-08-22T13:35:03.605Z,97269.44
2022-08-22T13:37:39.139Z,97272.72
2022-08-22T13:40:15.414Z,97278.28
2022-08-22T13:42:54.185Z,97287.50
2022-08-22T13:45:29.201Z,97291.53
2022-08-22T13:48:03.802Z,97298.34
2022-08-22T13:50:53.405Z,97295.72
2022-08-22T13:53:32.795Z,97298.16
2022-08-22T13:56:08.155Z,97300.13
2022-08-22T13:59:07.636Z,97295.63
2022-08-22T14:01:54.063Z,97300.13
2022-08-22T14:04:31.921Z,97296.25
2022-08-22T14:07:04.597Z,97294.47
2022-08-22T14:09:54.390Z,97307.13
2022-08-22T14:12:50.054Z,97308.03
2022-08-22T14:15:26.702Z,97305.59
2022-08-22T14:18:30.375Z,97311.94
2022-08-22T14:21:20.042Z,97323.25
2022-08-22T14:23:52.355Z,97319.44
2022-08-22T14:26:37.312Z,97323.22
2022-08-22T14:29:18.689Z,97321.34
2022-08-22T14:31:58.369Z,97330.84
2022-08-22T14:34:27.690Z,97326.75
2022-08-22T14:37:08.978Z,97330.97
2022-08-22T14:39:56.337Z,97320.88
2022-08-22T14:42:34.142Z,97325.97
2022-08-22T14:45:30.245Z,97333.09
2022-08-22T14:48:30.396Z,97317.38
2022-08-22T14:50:53.485Z,97316.16
2022-08-22T14:53:29.620Z,97328.84
2022-08-22T14:56:06.381Z,97333.94
2022-08-22T14:58:47.144Z,97329.44
2022-08-22T15:01:19.588Z,97324.16
2022-08-22T15:04:11.787Z,97334.56
2022-08-22T15:06:47.683Z,97331.81
2022-08-22T15:09:40.580Z,97331.88
2022-08-22T15:12:38.671Z,97332.91
2022-08-22T15:15:29.297Z,97336.09
2022-08-22T15:18:05.373Z,97330.41
2022-08-22T15:20:49.081Z,97335.94
2022-08-22T15:23:23.146Z,97337.16
2022-08-22T15:26:04.051Z,97341.34
2022-08-22T15:28:53.327Z,97337.97
2022-08-22T15:31:22.054Z,97338.44
2022-08-22T15:33:51.295Z,97348.75
2022-08-22T15:36:26.088Z,97358.19
2022-08-22T15:39:31.322Z,97358.44
2022-08-22T15:42:05.491Z,97361.69
2022-08-22T15:44:39.243Z,97361.41
2022-08-22T15:47:27.691Z,97362.25
2022-08-22T15:50:05.864Z,97353.69
2022-08-22T15:52:59.124Z,97348.69
2022-08-22T15:55:34.395Z,97346.31
2022-08-22T15:58:13.217Z,97339.13
2022-08-22T16:01:18.916Z,97338.34
2022-08-22T16:04:09.084Z,97335.75
2022-08-22T16:06:53.847Z,97338.56
2022-08-22T16:09:36.515Z,97332.63
2022-08-22T16:12:09.278Z,97336.00
2022-08-22T16:14:37.243Z,97339.06
2022-08-22T16:17:27.767Z,97324.94
2022-08-22T16:20:20.009Z,97317.69
2022-08-22T16:22:57.774Z,97321.72
2022-08-22T16:25:47.148Z,97317.81
2022-08-22T16:29:02.552Z,97313.44
2022-08-22T16:31:32.616Z,97307.78
2022-08-22T16:34:19.007Z,97295.47
2022-08-22T16:36:51.931Z,97297.66
2022-08-22T16:39:22.957Z,97291.28
2022-08-22T16:42:15.496Z,97292.88
2022-08-22T16:44:56.798Z,97292.91
2022-08-22T16:47:24.769Z,97290.41
2022-08-22T16:49:52.723Z,97295.19
2022-08-22T16:52:26.617Z,97291.81
2022-08-22T16:54:58.110Z,97297.84
2022-08-22T16:57:54.470Z,97286.13
2022-08-22T17:00:40.299Z,97283.19
2022-08-22T17:03:17.620Z,97275.97
2022-08-22T17:06:17.972Z,97277.19
2022-08-22T17:08:51.604Z,97282.91
2022-08-22T17:11:30.720Z,97276.88
2022-08-22T17:14:28.825Z,97284.16
2022-08-22T17:17:08.499Z,97276.59
2022-08-22T17:20:17.875Z,97282.34
2022-08-22T17:22:45.859Z,97278.06
2022-08-22T17:25:33.299Z,97284.41
2022-08-22T17:28:25.018Z,97279.47
2022-08-22T17:31:14.085Z,97275.63
2022-08-22T17:33:42.059Z,97274.09
2022-08-22T17:36:26.837Z,97277.06
2022-08-22T17:39:04.130Z,97281.38
2022-08-22T17:41:38.251Z,97276.16
2022-08-22T17:44:20.317Z,97277.66
2022-08-22T17:47:03.985Z,97275.44
2022-08-22T17:49:45.231Z,97280.28
2022-08-22T17:52:41.286Z,97275.84
2022-08-22T17:55:19.655Z,97271.44
2022-08-22T17:57:56.958Z,97271.94
2022-08-22T18:00:31.855Z,97265.53
2022-08-22T18:03:14.955Z,97263.53
2022-08-22T18:06:31.906Z,97262.66
2022-08-22T18:09:17.066Z,97260.34
2022-08-22T18:11:57.529Z,97257.16
2022-08-22T18:14:41.154Z,97259.03
2022-08-22T18:17:20.266Z,97255.22
2022-08-22T18:19:54.359Z,97246.81
2022-08-22T18:22:27.715Z,97246.53
2022-08-22T18:25:19.422Z,97239.19
2022-08-22T18:27:52.710Z,97228.19
2022-08-22T18:30:23.590Z,97230.50
2022-08-22T18:33:20.310Z,97225.38
2022-08-22T18:35:56.518Z,97216.16
2022-08-22T18:38:32.298Z,97220.09
2022-08-22T18:41:10.277Z,97214.56
2022-08-22T18:43:51.363Z,97220.91
2022-08-22T18:46:32.658Z,97209.28
2022-08-22T18:49:20.746Z,97210.69
2022-08-22T18:52:07.226Z,97207.13
2022-08-22T18:54:48.551Z,97203.78
2022-08-22T18:57:40.289Z,97199.94
2022-08-22T19:00:21.843Z,97209.03
2022-08-22T19:03:05.106Z,97208.72
2022-08-22T19:05:51.667Z,97206.91
2022-08-22T19:08:40.831Z,97198.97
2022-08-22T19:11:27.125Z,97198.38
2022-08-22T19:14:22.175Z,97199.16
2022-08-22T19:17:05.816Z,97199.53
2022-08-22T19:19:42.993Z,97200.59
2022-08-22T19:22:30.385Z,97186.03
2022-08-22T19:25:10.249Z,97187.56
2022-08-22T19:27:40.875Z,97186.19
2022-08-22T19:30:34.596Z,97182.22
2022-08-22T19:33:06.419Z,97179.47
2022-08-22T19:35:39.153Z,97174.44
2022-08-22T19:38:09.481Z,97171.13
2022-08-22T19:40:46.618Z,97168.56
2022-08-22T19:43:35.334Z,97170.38
2022-08-22T19:46:07.077Z,97170.94
2022-08-22T19:48:45.750Z,97167.63
2022-08-22T19:51:29.649Z,97164.13
2022-08-22T19:54:12.366Z,97168.00
2022-08-22T19:56:58.903Z,97167.03
2022-08-22T19:59:39.203Z,97171.91
2022-08-22T20:02:50.142Z,97169.84
2022-08-22T20:05:26.073Z,97167.66
2022-08-22T20:08:08.656Z,97165.81
2022-08-22T20:10:36.649Z,97156.19
2022-08-22T20:13:12.229Z,97164.16
2022-08-22T20:16:12.801Z,97163.38
2022-08-22T20:19:08.441Z,97170.22
2022-08-22T20:22:15.763Z,97161.38
2022-08-22T20:25:17.193Z,97162.81
2022-08-22T20:28:08.219Z,97161.69
2022-08-22T20:30:45.107Z,97164.13
2022-08-22T20:33:25.929Z,97164.50
2022-08-22T20:35:56.502Z,97166.34
2022-08-22T20:38:32.819Z,97164.88
2022-08-22T20:41:13.492Z,97162.47
2022-08-22T20:43:51.315Z,97162.03
2022-08-22T20:46:47.765Z,97160.38
2022-08-22T20:49:23.491Z,97157.13
2022-08-22T20:51:53.159Z,97136.97
2022-08-22T20:54:28.223Z,97131.63
2022-08-22T20:57:02.361Z,97135.72
2022-08-22T20:59:35.034Z,97127.59
2022-08-22T21:02:34.969Z,97121.66
2022-08-22T21:05:04.055Z,97121.50
2022-08-22T21:07:37.941Z,97121.19
2022-08-22T21:10:10.307Z,97112.78
2022-08-22T21:12:38.315Z,97110.53
2022-08-22T21:15:06.766Z,97113.00
2022-08-22T21:17:39.101Z,97111.88
2022-08-22T21:20:22.247Z,97117.63
2022-08-22T21:22:50.810Z,97112.47
2022-08-22T21:25:21.189Z,97104.69
2022-08-22T21:27:49.647Z,97107.19
2022-08-22T21:30:26.232Z,97110.38
2022-08-22T21:32:56.108Z,97106.16
2022-08-22T21:35:34.751Z,97108.81
2022-08-22T21:38:03.076Z,97114.91
2022-08-22T21:40:39.289Z,97115.66
2022-08-22T21:43:12.847Z,97120.19
2022-08-22T21:45:40.413Z,97113.06
2022-08-22T21:49:05.654Z,97114.47
2022-08-22T21:51:44.391Z,97117.06
2022-08-22T21:54:25.513Z,97118.03
2022-08-22T21:56:56.227Z,97108.41
2022-08-22T21:59:43.099Z,97118.34
2022-08-22T22:02:35.308Z,97121.25
2022-08-22T22:05:11.672Z,97134.56
2022-08-22T22:07:42.117Z,97129.59
2022-08-22T22:10:17.362Z,97127.69
2022-08-22T22:12:46.974Z,97128.28
2022-08-22T22:15:21.951Z,97125.28
2022-08-22T22:17:50.859Z,97125.03
2022-08-22T22:20:23.406Z,97120.41
2022-08-22T22:22:51.550Z,97111.22
2022-08-22T22:25:39.684Z,97112.84
2022-08-22T22:28:21.625Z,97103.44
2022-08-22T22:30:52.914Z,97106.50
2022-08-22T22:33:31.832Z,97105.34
2022-08-22T22:36:05.770Z,97113.22
2022-08-22T22:38:33.897Z,97116.00
2022-08-22T22:41:07.119Z,97103.72
2022-08-22T22:43:35.484Z,97110.03
2022-08-22T22:46:03.530Z,97107.06
2022-08-22T22:48:31.576Z,97106.31
2022-08-22T22:51:00.028Z,97113.94
2022-08-22T22:53:38.156Z,97122.28
2022-08-22T22:56:09.914Z,97132.56
2022-08-22T22:58:38.954Z,97139.94
2022-08-22T23:01:17.131Z,97156.63
2022-08-22T23:03:45.941Z,97142.50
2022-08-22T23:06:19.960Z,97145.78
2022-08-22T23:08:53.370Z,97144.22
2022-08-22T23:11:27.383Z,97153.63
2022-08-22T23:13:58.001Z,97154.06
2022-08-22T23:16:29.211Z,97138.03
2022-08-22T23:18:58.488Z,97132.34
2022-08-22T23:21:29.421Z,97119.16
2022-08-22T23:24:05.411Z,97119.88
2022-08-22T23:26:33.533Z,97105.50
2022-08-22T23:29:07.004Z,97104.81
2022-08-22T23:31:53.080Z,97115.25
2022-08-22T23:34:26.623Z,97123.50
2022-08-22T23:36:58.173Z,97113.94
2022-08-22T23:39:30.496Z,97127.16
2022-08-22T23:41:59.306Z,97121.69
2022-08-22T23:44:30.251Z,97120.44
2022-08-22T23:46:59.075Z,97130.34
2022-08-22T23:49:28.187Z,97120.94
2022-08-22T23:51:56.531Z,97120.81
2022-08-22T23:54:25.966Z,97122.59
2022-08-22T23:56:58.819Z,97118.16
2022-08-22T23:59:31.483Z,97121.56
